createdAt,value
2019-05-10T00:02:10.749Z,28.40
2019-05-10T00:04:55.652Z,30.13
2019-05-10T00:07:42.838Z,31.20
2019-05-10T00:10:09.026Z,33.33
2019-05-10T00:12:46.171Z,33.50
2019-05-10T00:15:13.755Z,32.67
2019-05-10T00:17:40.087Z,34.33
2019-05-10T00:20:06.564Z,33.90
2019-05-10T00:22:32.825Z,34.70
2019-05-10T00:25:04.824Z,34.67
2019-05-10T00:27:29.189Z,35.13
2019-05-10T00:29:55.355Z,36.03
2019-05-10T00:32:21.463Z,36.97
2019-05-10T00:34:48.311Z,34.20
2019-05-10T00:37:18.394Z,34.50
2019-05-10T00:39:44.597Z,37.57
2019-05-10T00:42:10.961Z,40.83
2019-05-10T00:44:39.913Z,34.43
2019-05-10T00:47:09.052Z,37.90
2019-05-10T00:49:35.401Z,36.53
2019-05-10T00:52:01.639Z,35.73
2019-05-10T00:54:27.969Z,36.93
2019-05-10T00:56:54.317Z,37.90
2019-05-10T00:59:20.568Z,37.07
2019-05-10T01:01:47.203Z,35.77
2019-05-10T01:04:13.388Z,36.67
2019-05-10T01:06:39.736Z,38.03
2019-05-10T01:09:08.367Z,33.23
2019-05-10T01:11:34.706Z,33.70
2019-05-10T01:14:01.135Z,31.53
2019-05-10T01:16:27.443Z,33.97
2019-05-10T01:18:53.669Z,32.10
2019-05-10T01:21:22.961Z,33.47
2019-05-10T01:23:49.505Z,30.67
2019-05-10T01:26:15.806Z,32.53
2019-05-10T01:28:42.223Z,31.70
2019-05-10T01:31:08.695Z,32.57
2019-05-10T01:33:35.973Z,32.27
2019-05-10T01:36:02.101Z,30.73
2019-05-10T01:38:28.237Z,32.60
2019-05-10T01:40:54.346Z,29.57
2019-05-10T01:43:20.549Z,32.40
2019-05-10T01:45:46.769Z,31.37
2019-05-10T01:48:13.885Z,32.67
2019-05-10T01:50:40.601Z,32.20
2019-05-10T01:53:06.838Z,30.73
2019-05-10T01:55:32.984Z,30.93
2019-05-10T01:57:59.197Z,31.17
2019-05-10T02:00:25.753Z,32.17
2019-05-10T02:02:52.056Z,30.33
2019-05-10T02:05:18.805Z,30.40
2019-05-10T02:07:46.199Z,31.83
2019-05-10T02:10:13.024Z,32.67
2019-05-10T02:12:39.248Z,32.10
2019-05-10T02:15:06.555Z,31.77
2019-05-10T02:17:32.807Z,30.73
2019-05-10T02:20:00.846Z,30.13
2019-05-10T02:22:27.060Z,28.03
2019-05-10T02:24:53.247Z,28.53
2019-05-10T02:27:19.539Z,27.83
2019-05-10T02:29:45.694Z,27.20
2019-05-10T02:32:12.222Z,26.67
2019-05-10T02:34:38.739Z,24.80
2019-05-10T02:37:06.074Z,25.20
2019-05-10T02:39:32.410Z,25.13
2019-05-10T02:41:58.653Z,23.77
2019-05-10T02:44:24.891Z,25.20
2019-05-10T02:46:51.133Z,26.13
2019-05-10T02:49:17.238Z,25.40
2019-05-10T02:51:43.555Z,26.70
2019-05-10T02:54:09.928Z,23.43
2019-05-10T02:56:37.175Z,22.03
2019-05-10T02:59:04.595Z,23.47
2019-05-10T03:01:30.745Z,22.30
2019-05-10T03:04:00.575Z,21.00
2019-05-10T03:06:28.779Z,21.27
2019-05-10T03:08:55.143Z,19.47
2019-05-10T03:11:21.500Z,20.67
2019-05-10T03:13:50.402Z,19.47
2019-05-10T03:16:20.904Z,20.77
2019-05-10T03:18:50.097Z,20.53
2019-05-10T03:21:16.551Z,21.50
2019-05-10T03:23:42.820Z,20.07
2019-05-10T03:26:09.113Z,19.97
2019-05-10T03:28:35.310Z,20.33
2019-05-10T03:31:01.604Z,20.20
2019-05-10T03:33:27.934Z,18.77
2019-05-10T03:35:54.316Z,20.07
2019-05-10T03:38:20.940Z,21.70
2019-05-10T03:40:47.204Z,21.30
2019-05-10T03:43:13.407Z,20.03
2019-05-10T03:45:39.520Z,20.33
2019-05-10T03:48:05.751Z,20.60
2019-05-10T03:50:31.885Z,18.77
2019-05-10T03:52:58.466Z,19.67
2019-05-10T03:55:24.834Z,19.90
2019-05-10T03:57:51.091Z,20.83
2019-05-10T04:00:17.637Z,20.77
2019-05-10T04:02:43.975Z,22.33
2019-05-10T04:05:10.417Z,22.57
2019-05-10T04:07:36.756Z,20.33
2019-05-10T04:10:04.662Z,22.77
2019-05-10T04:12:31.184Z,26.03
2019-05-10T04:14:57.453Z,23.43
2019-05-10T04:17:24.761Z,24.07
2019-05-10T04:19:51.197Z,23.37
2019-05-10T04:22:17.423Z,23.73
2019-05-10T04:24:43.776Z,24.13
2019-05-10T04:27:10.023Z,22.47
2019-05-10T04:29:36.352Z,22.23
2019-05-10T04:32:02.693Z,23.97
2019-05-10T04:34:28.840Z,25.17
2019-05-10T04:36:55.208Z,24.07
2019-05-10T04:39:21.420Z,24.80
2019-05-10T04:41:47.729Z,25.77
2019-05-10T04:44:13.981Z,26.17
2019-05-10T04:46:40.271Z,25.00
2019-05-10T04:49:06.381Z,25.90
2019-05-10T04:51:32.729Z,26.47
2019-05-10T04:53:58.890Z,27.40
2019-05-10T04:56:25.137Z,26.03
2019-05-10T04:58:51.484Z,26.37
2019-05-10T05:01:17.846Z,26.50
2019-05-10T05:03:44.126Z,26.37
2019-05-10T05:06:10.252Z,26.20
2019-05-10T05:08:36.383Z,27.07
2019-05-10T05:11:02.748Z,29.17
2019-05-10T05:13:28.974Z,26.07
2019-05-10T05:15:55.376Z,29.23
2019-05-10T05:18:21.843Z,28.17
2019-05-10T05:20:48.153Z,26.53
2019-05-10T05:23:14.533Z,27.60
2019-05-10T05:25:41.923Z,27.07
2019-05-10T05:28:09.162Z,24.17
2019-05-10T05:30:38.651Z,24.37
2019-05-10T05:33:03.881Z,27.07
2019-05-10T05:35:30.212Z,25.80
2019-05-10T05:37:56.643Z,23.00
2019-05-10T05:40:22.954Z,24.90
2019-05-10T05:42:49.281Z,24.87
2019-05-10T05:45:15.697Z,26.73
2019-05-10T05:47:44.632Z,24.97
2019-05-10T05:50:10.411Z,24.80
2019-05-10T05:52:36.524Z,24.60
2019-05-10T05:55:05.354Z,25.03
2019-05-10T05:57:31.639Z,25.70
2019-05-10T06:00:04.246Z,25.87
2019-05-10T06:02:27.171Z,26.93
2019-05-10T06:04:54.457Z,24.90
2019-05-10T06:07:20.676Z,23.77
2019-05-10T06:09:46.882Z,26.77
2019-05-10T06:12:14.302Z,30.07
2019-05-10T06:14:42.999Z,25.77
2019-05-10T06:17:08.962Z,28.70
2019-05-10T06:19:35.279Z,31.67
2019-05-10T06:22:04.660Z,33.53
2019-05-10T06:24:29.747Z,31.47
2019-05-10T06:26:58.208Z,31.83
2019-05-10T06:29:24.175Z,32.50
2019-05-10T06:31:50.400Z,31.87
2019-05-10T06:34:17.072Z,32.67
2019-05-10T06:36:43.414Z,33.17
2019-05-10T06:39:09.773Z,34.80
2019-05-10T06:41:35.986Z,33.90
2019-05-10T06:44:02.330Z,33.13
2019-05-10T06:46:29.675Z,33.63
2019-05-10T06:49:07.208Z,33.57
2019-05-10T06:51:25.353Z,34.60
2019-05-10T06:53:53.778Z,36.57
2019-05-10T06:56:19.887Z,34.40
2019-05-10T06:58:46.103Z,32.33
2019-05-10T07:01:12.436Z,36.57
2019-05-10T07:03:38.682Z,35.83
2019-05-10T07:06:04.819Z,35.90
2019-05-10T07:08:43.269Z,36.53
2019-05-10T07:10:59.240Z,36.77
2019-05-10T07:13:25.621Z,36.47
2019-05-10T07:15:52.799Z,32.17
2019-05-10T07:18:22.618Z,29.67
2019-05-10T07:20:47.480Z,28.03
2019-05-10T07:23:13.635Z,26.43
2019-05-10T07:25:43.867Z,25.10
2019-05-10T07:28:09.277Z,25.67
2019-05-10T07:30:36.666Z,25.80
2019-05-10T07:33:03.764Z,26.23
2019-05-10T07:35:30.889Z,26.20
2019-05-10T07:37:58.488Z,24.33
2019-05-10T07:40:25.000Z,22.90
2019-05-10T07:42:51.225Z,23.10
2019-05-10T07:45:18.910Z,26.17
2019-05-10T07:47:46.039Z,20.80
2019-05-10T07:50:13.651Z,21.70
2019-05-10T07:52:43.642Z,22.50
2019-05-10T07:55:10.357Z,21.70
2019-05-10T07:57:36.574Z,22.33
2019-05-10T08:00:06.106Z,20.03
2019-05-10T08:02:32.943Z,18.33
2019-05-10T08:04:59.291Z,18.53
2019-05-10T08:07:25.641Z,19.40
2019-05-10T08:09:51.768Z,18.10
2019-05-10T08:12:19.513Z,19.73
2019-05-10T08:14:51.882Z,17.23
2019-05-10T08:17:14.259Z,18.10
2019-05-10T08:19:40.633Z,17.30
2019-05-10T08:22:09.498Z,16.50
2019-05-10T08:24:35.697Z,17.90
2019-05-10T08:27:07.975Z,16.87
2019-05-10T08:29:32.867Z,17.07
2019-05-10T08:31:58.649Z,18.23
2019-05-10T08:34:28.863Z,18.83
2019-05-10T08:36:53.037Z,17.00
2019-05-10T08:39:22.345Z,17.30
2019-05-10T08:42:03.688Z,16.50
2019-05-10T08:44:20.957Z,16.77
2019-05-10T08:46:46.405Z,15.40
2019-05-10T08:49:13.031Z,15.23
2019-05-10T08:51:43.796Z,14.97
2019-05-10T08:54:07.717Z,14.40
2019-05-10T08:56:33.949Z,11.13
2019-05-10T08:59:03.083Z,11.03
2019-05-10T09:01:30.668Z,10.60
2019-05-10T09:04:00.818Z,9.60
2019-05-10T09:06:24.863Z,8.80
2019-05-10T09:08:52.930Z,9.20
2019-05-10T09:11:19.552Z,9.23
2019-05-10T09:13:46.424Z,9.13
2019-05-10T09:16:13.619Z,8.57
2019-05-10T09:18:46.120Z,9.37
2019-05-10T09:21:10.579Z,8.27
2019-05-10T09:23:36.578Z,7.60
2019-05-10T09:26:10.317Z,7.30
2019-05-10T09:28:32.195Z,6.13
2019-05-10T09:31:15.269Z,5.93
2019-05-10T09:33:28.058Z,6.30
2019-05-10T09:35:55.199Z,5.60
2019-05-10T09:38:22.220Z,4.93
2019-05-10T09:40:52.723Z,4.83
2019-05-10T09:43:16.616Z,4.87
2019-05-10T09:45:42.960Z,4.93
2019-05-10T09:48:11.874Z,4.97
2019-05-10T09:50:44.062Z,5.40
2019-05-10T09:53:07.393Z,5.33
2019-05-10T09:55:34.092Z,5.50
2019-05-10T09:58:00.497Z,5.73
2019-05-10T10:00:32.848Z,5.37
2019-05-10T10:03:01.569Z,6.40
2019-05-10T10:05:27.916Z,5.97
2019-05-10T10:07:54.248Z,5.60
2019-05-10T10:10:28.555Z,6.10
2019-05-10T10:12:49.002Z,6.07
2019-05-10T10:15:28.352Z,6.33
2019-05-10T10:17:43.760Z,6.07
2019-05-10T10:20:10.126Z,5.60
2019-05-10T10:22:38.119Z,6.07
2019-05-10T10:25:07.387Z,6.53
2019-05-10T10:27:36.091Z,5.97
2019-05-10T10:30:06.547Z,6.40
2019-05-10T10:32:34.891Z,5.00
2019-05-10T10:35:02.877Z,4.47
2019-05-10T10:37:31.328Z,3.83
2019-05-10T10:40:03.066Z,3.90
2019-05-10T10:42:25.817Z,4.37
2019-05-10T10:44:52.038Z,3.80
2019-05-10T10:47:22.846Z,4.13
2019-05-10T10:49:46.817Z,4.47
2019-05-10T10:52:13.601Z,3.60
2019-05-10T10:54:40.102Z,3.40
2019-05-10T10:57:08.038Z,4.03
2019-05-10T10:59:34.415Z,4.17
2019-05-10T11:02:27.196Z,3.83
2019-05-10T11:04:28.600Z,3.73
2019-05-10T11:07:09.344Z,4.23
2019-05-10T11:09:22.768Z,4.10
2019-05-10T11:11:51.107Z,4.00
2019-05-10T11:14:17.121Z,3.90
2019-05-10T11:16:46.815Z,4.23
2019-05-10T11:19:15.483Z,4.10
2019-05-10T11:21:41.483Z,4.80
2019-05-10T11:24:10.226Z,4.67
2019-05-10T11:26:37.059Z,4.50
2019-05-10T11:29:03.402Z,4.80
2019-05-10T11:31:31.158Z,5.80
2019-05-10T11:34:00.919Z,5.43
2019-05-10T11:36:25.859Z,5.03
2019-05-10T11:38:58.270Z,5.43
2019-05-10T11:41:23.768Z,5.63
2019-05-10T11:43:48.184Z,5.30
2019-05-10T11:46:14.417Z,5.30
2019-05-10T11:48:42.124Z,5.90
2019-05-10T11:51:12.249Z,5.70
2019-05-10T11:53:36.945Z,5.40
2019-05-10T11:56:07.942Z,5.53
2019-05-10T11:58:37.580Z,5.50
2019-05-10T12:01:03.176Z,4.87
2019-05-10T12:03:27.688Z,4.70
2019-05-10T12:06:04.451Z,4.80
2019-05-10T12:08:22.395Z,4.90
2019-05-10T12:11:07.148Z,4.77
2019-05-10T12:13:20.833Z,5.70
2019-05-10T12:15:46.113Z,5.27
2019-05-10T12:18:14.757Z,5.50
2019-05-10T12:20:54.072Z,5.30
2019-05-10T12:23:13.504Z,4.87
2019-05-10T12:25:51.081Z,6.10
2019-05-10T12:28:05.163Z,5.13
2019-05-10T12:30:35.078Z,5.50
2019-05-10T12:33:08.985Z,5.80
2019-05-10T12:35:35.693Z,5.80
2019-05-10T12:37:56.011Z,6.17
2019-05-10T12:40:24.133Z,6.00
2019-05-10T12:42:50.649Z,5.93
2019-05-10T12:45:17.423Z,5.93
2019-05-10T12:47:43.748Z,6.07
2019-05-10T12:50:10.695Z,6.50
2019-05-10T12:52:37.044Z,6.37
2019-05-10T12:55:05.219Z,6.20
2019-05-10T12:57:31.449Z,5.83
2019-05-10T12:59:57.734Z,6.20
2019-05-10T13:02:24.043Z,6.40
2019-05-10T13:04:52.721Z,6.17
2019-05-10T13:07:18.593Z,5.70
2019-05-10T13:09:44.885Z,6.10
2019-05-10T13:12:11.124Z,5.60
2019-05-10T13:14:40.038Z,5.07
2019-05-10T13:17:10.039Z,4.50
2019-05-10T13:19:34.107Z,5.53
2019-05-10T13:22:00.799Z,5.90
2019-05-10T13:24:27.373Z,5.60
2019-05-10T13:26:53.773Z,6.67
2019-05-10T13:29:20.163Z,6.30
2019-05-10T13:31:47.484Z,5.80
2019-05-10T13:34:13.842Z,5.53
2019-05-10T13:36:39.953Z,6.10
2019-05-10T13:39:06.345Z,6.63
2019-05-10T13:41:32.573Z,5.97
2019-05-10T13:44:04.373Z,6.27
2019-05-10T13:46:27.153Z,6.70
2019-05-10T13:48:53.993Z,6.33
2019-05-10T13:51:21.568Z,7.20
2019-05-10T13:53:47.943Z,7.03
2019-05-10T13:56:14.490Z,6.63
2019-05-10T13:58:40.793Z,6.70
2019-05-10T14:01:12.963Z,6.60
2019-05-10T14:03:43.649Z,7.07
2019-05-10T14:06:03.481Z,6.80
2019-05-10T14:08:29.863Z,6.50
2019-05-10T14:11:01.397Z,6.40
2019-05-10T14:13:24.180Z,6.70
2019-05-10T14:15:50.579Z,6.97
2019-05-10T14:18:17.005Z,7.13
2019-05-10T14:20:43.360Z,6.60
2019-05-10T14:23:09.731Z,7.00
2019-05-10T14:25:38.766Z,6.93
2019-05-10T14:28:09.755Z,7.07
2019-05-10T14:30:32.856Z,7.77
2019-05-10T14:32:59.011Z,7.37
2019-05-10T14:35:25.285Z,7.17
2019-05-10T14:37:51.694Z,6.90
2019-05-10T14:40:27.987Z,6.93
2019-05-10T14:42:46.396Z,6.90
2019-05-10T14:45:13.146Z,7.57
2019-05-10T14:47:48.031Z,6.93
2019-05-10T14:50:09.144Z,7.07
2019-05-10T14:52:35.375Z,7.00
2019-05-10T14:55:02.740Z,6.77
2019-05-10T14:57:29.335Z,7.70
2019-05-10T14:59:55.563Z,7.30
2019-05-10T15:02:23.044Z,7.37
2019-05-10T15:04:50.117Z,7.20
2019-05-10T15:07:16.738Z,7.00
2019-05-10T15:09:43.269Z,6.80
2019-05-10T15:12:10.090Z,6.30
2019-05-10T15:14:37.681Z,6.93
2019-05-10T15:17:04.132Z,6.97
2019-05-10T15:19:31.364Z,7.10
2019-05-10T15:21:58.049Z,7.67
2019-05-10T15:24:24.418Z,7.37
2019-05-10T15:26:50.941Z,7.10
2019-05-10T15:29:22.500Z,7.03
2019-05-10T15:31:45.472Z,7.50
2019-05-10T15:34:11.756Z,7.07
2019-05-10T15:36:38.188Z,7.27
2019-05-10T15:39:06.162Z,7.30
2019-05-10T15:41:32.551Z,7.23
2019-05-10T15:43:58.791Z,8.30
2019-05-10T15:46:36.175Z,8.13
2019-05-10T15:48:53.329Z,7.63
2019-05-10T15:51:34.110Z,7.47
2019-05-10T15:53:47.890Z,7.17
2019-05-10T15:56:14.497Z,7.00
2019-05-10T15:58:42.578Z,7.53
2019-05-10T16:01:09.230Z,7.60
2019-05-10T16:03:35.379Z,7.67
2019-05-10T16:06:02.975Z,7.33
2019-05-10T16:08:30.221Z,7.80
2019-05-10T16:10:57.312Z,8.17
2019-05-10T16:13:25.176Z,8.33
2019-05-10T16:15:57.467Z,8.57
2019-05-10T16:18:20.064Z,8.43
2019-05-10T16:20:46.405Z,8.40
2019-05-10T16:23:12.748Z,10.03
2019-05-10T16:25:42.911Z,10.20
2019-05-10T16:28:07.355Z,9.47
2019-05-10T16:30:36.404Z,10.60
2019-05-10T16:33:01.609Z,9.27
2019-05-10T16:35:38.394Z,9.97
2019-05-10T16:37:56.525Z,8.97
2019-05-10T16:40:23.020Z,9.20
2019-05-10T16:42:49.433Z,9.10
2019-05-10T16:45:15.997Z,8.67
2019-05-10T16:47:42.315Z,9.07
2019-05-10T16:50:09.065Z,9.17
2019-05-10T16:52:35.296Z,8.73
2019-05-10T16:55:03.636Z,10.03
2019-05-10T16:57:31.911Z,9.20
2019-05-10T17:00:01.988Z,8.73
2019-05-10T17:02:26.666Z,10.30
2019-05-10T17:04:52.923Z,9.60
2019-05-10T17:07:20.667Z,9.63
2019-05-10T17:09:49.431Z,9.27
2019-05-10T17:12:15.678Z,9.60
2019-05-10T17:14:42.059Z,9.20
2019-05-10T17:17:08.402Z,8.83
2019-05-10T17:19:36.160Z,8.70
2019-05-10T17:22:02.655Z,8.80
2019-05-10T17:24:29.003Z,9.03
2019-05-10T17:26:55.369Z,9.63
2019-05-10T17:29:21.813Z,9.67
2019-05-10T17:31:48.040Z,10.50
2019-05-10T17:34:22.103Z,10.77
2019-05-10T17:36:42.748Z,10.77
2019-05-10T17:39:12.292Z,11.07
2019-05-10T17:41:38.537Z,9.83
2019-05-10T17:44:05.042Z,9.93
2019-05-10T17:46:31.374Z,10.17
2019-05-10T17:48:57.924Z,10.80
2019-05-10T17:51:24.515Z,10.17
2019-05-10T17:53:55.069Z,10.23
2019-05-10T17:56:19.185Z,10.67
2019-05-10T17:58:45.558Z,10.40
2019-05-10T18:01:11.906Z,10.17
2019-05-10T18:03:38.433Z,11.93
2019-05-10T18:06:05.132Z,10.40
2019-05-10T18:08:31.601Z,11.90
2019-05-10T18:11:03.973Z,13.57
2019-05-10T18:13:26.400Z,14.90
2019-05-10T18:15:53.046Z,17.37
2019-05-10T18:18:19.472Z,17.37
2019-05-10T18:20:45.931Z,20.13
2019-05-10T18:23:20.360Z,19.87
2019-05-10T18:25:40.529Z,18.80
2019-05-10T18:28:09.966Z,19.33
2019-05-10T18:30:36.368Z,20.47
2019-05-10T18:33:06.856Z,21.87
2019-05-10T18:35:31.157Z,19.53
2019-05-10T18:37:59.560Z,19.70
2019-05-10T18:40:31.763Z,16.87
2019-05-10T18:42:57.967Z,19.03
2019-05-10T18:45:23.381Z,17.80
2019-05-10T18:47:50.154Z,18.00
2019-05-10T18:50:16.484Z,16.83
2019-05-10T18:52:42.903Z,19.00
2019-05-10T18:55:09.478Z,19.03
2019-05-10T18:57:35.717Z,20.03
2019-05-10T19:00:03.975Z,17.47
2019-05-10T19:02:30.438Z,16.50
2019-05-10T19:04:56.816Z,18.77
2019-05-10T19:07:23.248Z,16.93
2019-05-10T19:09:49.554Z,18.83
2019-05-10T19:12:18.727Z,18.27
2019-05-10T19:14:44.206Z,15.10
2019-05-10T19:17:11.131Z,15.97
2019-05-10T19:19:41.932Z,16.63
2019-05-10T19:22:08.963Z,15.33
2019-05-10T19:24:36.071Z,18.63
2019-05-10T19:27:07.289Z,18.03
2019-05-10T19:29:31.976Z,17.40
2019-05-10T19:31:58.321Z,17.67
2019-05-10T19:34:24.548Z,17.27
2019-05-10T19:36:51.159Z,19.13
2019-05-10T19:39:17.599Z,18.67
2019-05-10T19:41:43.954Z,19.60
2019-05-10T19:44:10.147Z,19.80
2019-05-10T19:46:39.474Z,20.43
2019-05-10T19:49:07.521Z,19.73
2019-05-10T19:51:33.075Z,19.97
2019-05-10T19:53:59.309Z,19.03
2019-05-10T19:56:29.962Z,19.70
2019-05-10T19:58:53.532Z,20.07
2019-05-10T20:01:19.920Z,21.57
2019-05-10T20:03:46.402Z,21.73
2019-05-10T20:06:12.695Z,24.47
2019-05-10T20:08:40.064Z,25.87
2019-05-10T20:11:06.454Z,28.77
2019-05-10T20:13:33.007Z,26.80
2019-05-10T20:16:01.458Z,24.60
2019-05-10T20:18:27.642Z,25.83
2019-05-10T20:20:54.110Z,25.70
2019-05-10T20:23:20.359Z,25.70
2019-05-10T20:25:46.793Z,25.53
2019-05-10T20:28:13.210Z,25.53
2019-05-10T20:30:39.578Z,28.17
2019-05-10T20:33:05.756Z,33.77
2019-05-10T20:35:32.252Z,39.23
2019-05-10T20:38:01.829Z,40.57
2019-05-10T20:40:27.003Z,35.17
2019-05-10T20:42:54.455Z,41.23
2019-05-10T20:45:20.832Z,42.73
2019-05-10T20:47:47.109Z,44.70
2019-05-10T20:50:14.151Z,41.63
2019-05-10T20:52:40.455Z,39.50
2019-05-10T20:55:07.384Z,42.63
2019-05-10T20:57:33.804Z,40.30
2019-05-10T21:00:00.274Z,39.10
2019-05-10T21:02:26.799Z,39.03
2019-05-10T21:04:53.236Z,39.30
2019-05-10T21:07:19.652Z,37.90
2019-05-10T21:09:46.011Z,37.73
2019-05-10T21:12:13.472Z,39.20
2019-05-10T21:14:39.727Z,40.57
2019-05-10T21:17:05.964Z,35.97
2019-05-10T21:19:32.358Z,39.93
2019-05-10T21:21:58.844Z,39.47
2019-05-10T21:24:25.240Z,43.83
2019-05-10T21:26:51.633Z,43.43
2019-05-10T21:29:18.098Z,45.90
2019-05-10T21:31:44.539Z,45.97
2019-05-10T21:34:10.968Z,43.23
2019-05-10T21:36:37.306Z,45.20
2019-05-10T21:39:05.811Z,46.10
2019-05-10T21:41:32.335Z,44.60
2019-05-10T21:43:58.686Z,48.10
2019-05-10T21:46:25.047Z,49.30
2019-05-10T21:48:51.281Z,48.80
2019-05-10T21:51:17.438Z,48.13
2019-05-10T21:53:43.675Z,53.93
2019-05-10T21:56:09.979Z,55.17
2019-05-10T21:58:36.335Z,53.80
2019-05-10T22:01:03.168Z,54.87
2019-05-10T22:03:31.367Z,54.43
2019-05-10T22:05:57.605Z,53.33
2019-05-10T22:08:23.840Z,56.23
2019-05-10T22:10:50.078Z,52.53
2019-05-10T22:13:16.320Z,53.57
2019-05-10T22:15:42.687Z,63.30
2019-05-10T22:18:09.036Z,52.80
2019-05-10T22:20:35.357Z,54.47
2019-05-10T22:23:01.738Z,51.50
2019-05-10T22:25:28.003Z,49.53
2019-05-10T22:27:54.092Z,54.47
2019-05-10T22:30:20.448Z,54.87
2019-05-10T22:32:46.709Z,56.23
2019-05-10T22:35:13.278Z,57.13
2019-05-10T22:37:39.688Z,54.97
2019-05-10T22:40:06.122Z,54.10
2019-05-10T22:42:32.355Z,53.63
2019-05-10T22:44:58.598Z,53.17
2019-05-10T22:47:25.526Z,50.97
2019-05-10T22:49:52.055Z,48.43
2019-05-10T22:52:18.363Z,51.50
2019-05-10T22:54:44.730Z,55.90
2019-05-10T22:57:11.104Z,54.63
2019-05-10T22:59:37.430Z,56.43
2019-05-10T23:02:03.782Z,55.73
2019-05-10T23:04:30.103Z,55.77
2019-05-10T23:06:56.289Z,54.77
2019-05-10T23:09:24.948Z,55.13
2019-05-10T23:11:50.637Z,55.30
2019-05-10T23:14:17.913Z,52.90
2019-05-10T23:16:44.036Z,56.63
2019-05-10T23:19:10.242Z,53.40
2019-05-10T23:21:36.349Z,49.33
2019-05-10T23:24:04.554Z,51.37
2019-05-10T23:26:30.792Z,50.57
2019-05-10T23:28:56.999Z,47.53
2019-05-10T23:31:23.183Z,47.93
2019-05-10T23:33:49.447Z,51.07
2019-05-10T23:36:15.787Z,49.77
2019-05-10T23:38:42.161Z,51.30
2019-05-10T23:41:08.674Z,51.60
2019-05-10T23:43:34.892Z,49.57
2019-05-10T23:46:01.110Z,49.83
2019-05-10T23:48:27.204Z,50.83
2019-05-10T23:50:53.406Z,51.53
2019-05-10T23:53:19.506Z,52.50
2019-05-10T23:55:45.905Z,54.73
2019-05-10T23:58:12.264Z,54.87
